Time;durP1;ratioP1;P1;durP2;ratioP2;P2;SDS_P1;SDS_P2;PMS_P1;PMS_P2;Temp;Humidity;BMP_temperature;BMP_pressure;BME280_temperature;BME280_humidity;BME280_pressure;Samples;Min_cycle;Max_cycle;Signal;HPM_P1;HPM_P2
2023/10/20 00:02:04;;;;;;;10.55;6.72;;;;;;;;;;5107119;27;40484;-62
2023/10/20 00:04:33;;;;;;;10.00;6.95;;;;;;;;;;5092247;27;43321;-62
2023/10/20 00:07:02;;;;;;;7.50;6.45;;;;;;;;;;5096962;27;41161;-62
2023/10/20 00:09:32;;;;;;;8.50;6.90;;;;;;;;;;5102412;28;42308;-62
2023/10/20 00:12:00;;;;;;;9.30;7.03;;;;;;;;;;5124406;27;42684;-62
2023/10/20 00:14:27;;;;;;;9.60;6.65;;;;;;;;;;5157598;27;40226;-62
2023/10/20 00:16:56;;;;;;;9.23;6.72;;;;;;;;;;5130803;27;42927;-62
2023/10/20 00:19:24;;;;;;;8.35;6.47;;;;;;;;;;5147216;27;40779;-62
2023/10/20 00:21:52;;;;;;;8.90;6.85;;;;;;;;;;5147716;27;40766;-62
2023/10/20 00:24:21;;;;;;;8.60;6.47;;;;;;;;;;5152298;27;42596;-62
2023/10/20 00:26:50;;;;;;;8.55;6.63;;;;;;;;;;5137115;27;40754;-62
2023/10/20 00:29:19;;;;;;;8.00;6.65;;;;;;;;;;5139939;27;41792;-62
2023/10/20 00:31:47;;;;;;;7.90;6.32;;;;;;;;;;5148607;27;40538;-62
2023/10/20 00:34:15;;;;;;;9.07;7.22;;;;;;;;;;5147838;27;38887;-62
2023/10/20 00:36:43;;;;;;;9.93;6.53;;;;;;;;;;5136935;27;40128;-62
2023/10/20 00:39:12;;;;;;;7.90;6.95;;;;;;;;;;5161138;27;42324;-62
2023/10/20 00:41:40;;;;;;;8.02;6.18;;;;;;;;;;5145883;27;39100;-62
2023/10/20 00:44:09;;;;;;;8.85;6.57;;;;;;;;;;5133469;27;41686;-62
2023/10/20 00:46:37;;;;;;;8.98;6.30;;;;;;;;;;5149838;27;43409;-63
2023/10/20 00:49:05;;;;;;;7.45;6.38;;;;;;;;;;5147942;27;39923;-62
2023/10/20 00:51:33;;;;;;;7.40;5.85;;;;;;;;;;5138500;27;41994;-62
2023/10/20 00:54:01;;;;;;;7.90;6.55;;;;;;;;;;5150988;27;40305;-62
2023/10/20 00:56:30;;;;;;;7.65;6.65;;;;;;;;;;5136606;27;42550;-62
2023/10/20 00:58:58;;;;;;;7.38;6.22;;;;;;;;;;5150479;27;43282;-62
2023/10/20 01:01:27;;;;;;;6.72;5.82;;;;;;;;;;5149623;27;42436;-62
2023/10/20 01:03:55;;;;;;;8.07;6.13;;;;;;;;;;5151295;27;42199;-62
2023/10/20 01:06:23;;;;;;;8.55;6.43;;;;;;;;;;5150057;27;41968;-62
2023/10/20 01:08:54;;;;;;;8.98;6.50;;;;;;;;;;5144454;27;37285;-62
2023/10/20 01:11:22;;;;;;;8.00;6.32;;;;;;;;;;5146369;27;41865;-62
2023/10/20 01:13:51;;;;;;;8.82;6.80;;;;;;;;;;5136226;27;40530;-62
2023/10/20 01:16:19;;;;;;;7.30;6.13;;;;;;;;;;5143426;27;42628;-62
2023/10/20 01:18:48;;;;;;;8.85;6.15;;;;;;;;;;5152141;27;43236;-62
2023/10/20 01:21:18;;;;;;;7.30;5.55;;;;;;;;;;5156356;27;39004;-62
2023/10/20 01:23:46;;;;;;;9.20;6.38;;;;;;;;;;5161931;27;42163;-62
2023/10/20 01:26:15;;;;;;;7.85;6.40;;;;;;;;;;5169967;27;42046;-62
2023/10/20 01:28:43;;;;;;;7.57;6.25;;;;;;;;;;5154168;27;41175;-62
2023/10/20 01:31:12;;;;;;;8.18;6.28;;;;;;;;;;5160547;27;40246;-62
2023/10/20 01:33:40;;;;;;;7.53;6.55;;;;;;;;;;5149168;27;40324;-62
2023/10/20 01:36:08;;;;;;;8.68;6.03;;;;;;;;;;5146805;27;41574;-62
2023/10/20 01:38:36;;;;;;;7.97;6.63;;;;;;;;;;5147411;27;42433;-62
2023/10/20 01:41:06;;;;;;;7.68;6.00;;;;;;;;;;5144461;27;40438;-62
2023/10/20 01:43:35;;;;;;;8.52;6.05;;;;;;;;;;5141450;27;42608;-62
2023/10/20 01:46:03;;;;;;;8.75;6.85;;;;;;;;;;5147778;27;41120;-62
2023/10/20 01:48:31;;;;;;;7.45;6.18;;;;;;;;;;5149593;27;39900;-62
2023/10/20 01:51:00;;;;;;;7.78;6.53;;;;;;;;;;5145724;27;42362;-62
2023/10/20 01:53:28;;;;;;;8.77;6.43;;;;;;;;;;5134165;27;42789;-62
2023/10/20 01:55:56;;;;;;;8.02;6.35;;;;;;;;;;5131144;27;41551;-62
2023/10/20 01:58:24;;;;;;;7.63;6.35;;;;;;;;;;5147210;27;41661;-62
2023/10/20 02:00:54;;;;;;;7.93;6.07;;;;;;;;;;5147836;27;38679;-62
2023/10/20 02:03:23;;;;;;;9.02;6.18;;;;;;;;;;5149436;27;41849;-62
2023/10/20 02:05:51;;;;;;;7.75;6.40;;;;;;;;;;5147081;27;40765;-61
2023/10/20 02:08:20;;;;;;;7.60;6.40;;;;;;;;;;5143676;27;39017;-62
2023/10/20 02:10:48;;;;;;;8.50;6.28;;;;;;;;;;5139827;27;41525;-62
2023/10/20 02:13:16;;;;;;;8.45;6.10;;;;;;;;;;5148324;27;41739;-62
2023/10/20 02:15:46;;;;;;;8.63;6.70;;;;;;;;;;5142828;27;42338;-62
2023/10/20 02:18:15;;;;;;;8.10;6.05;;;;;;;;;;5133904;27;40707;-62
2023/10/20 02:20:43;;;;;;;7.97;6.40;;;;;;;;;;5147020;27;38828;-62
2023/10/20 02:23:12;;;;;;;8.55;6.55;;;;;;;;;;5145681;27;40279;-61
2023/10/20 02:25:39;;;;;;;7.60;6.07;;;;;;;;;;5140686;27;41052;-62
2023/10/20 02:28:07;;;;;;;10.35;6.43;;;;;;;;;;5148284;27;41395;-62
2023/10/20 02:30:36;;;;;;;8.93;6.75;;;;;;;;;;5136397;27;42035;-62
2023/10/20 02:33:05;;;;;;;8.85;6.53;;;;;;;;;;5137530;27;42051;-62
2023/10/20 02:35:35;;;;;;;8.23;6.28;;;;;;;;;;5145262;27;41330;-63
2023/10/20 02:38:04;;;;;;;7.40;6.38;;;;;;;;;;5144857;27;41876;-62
2023/10/20 02:40:32;;;;;;;7.85;6.25;;;;;;;;;;5127931;27;41423;-62
2023/10/20 02:43:01;;;;;;;7.38;6.13;;;;;;;;;;5142835;27;41245;-62
2023/10/20 02:45:29;;;;;;;8.38;6.45;;;;;;;;;;5142213;27;41944;-62
2023/10/20 02:47:57;;;;;;;8.25;6.68;;;;;;;;;;5141370;27;39927;-62
2023/10/20 02:50:27;;;;;;;7.80;6.47;;;;;;;;;;5132670;27;42612;-62
2023/10/20 02:52:56;;;;;;;8.15;6.00;;;;;;;;;;5146967;27;41842;-62
2023/10/20 02:55:26;;;;;;;8.00;6.72;;;;;;;;;;5148637;27;40655;-62
2023/10/20 02:57:54;;;;;;;8.85;6.50;;;;;;;;;;5145129;27;42213;-62
2023/10/20 03:00:22;;;;;;;8.27;6.60;;;;;;;;;;5149284;27;40339;-62
2023/10/20 03:02:52;;;;;;;7.18;5.88;;;;;;;;;;5148074;27;41441;-62
2023/10/20 03:05:21;;;;;;;7.35;5.53;;;;;;;;;;5142808;27;42239;-62
2023/10/20 03:07:49;;;;;;;7.70;5.93;;;;;;;;;;5155676;27;41262;-62
2023/10/20 03:10:20;;;;;;;8.15;6.18;;;;;;;;;;5147181;27;41619;-62
2023/10/20 03:12:48;;;;;;;9.02;6.28;;;;;;;;;;5140895;27;42887;-62
2023/10/20 03:15:16;;;;;;;8.73;6.55;;;;;;;;;;5151451;27;38913;-62
2023/10/20 03:17:45;;;;;;;8.68;6.18;;;;;;;;;;5141930;27;20262;-62
2023/10/20 03:20:17;;;;;;;7.38;6.03;;;;;;;;;;5156503;27;42279;-62
2023/10/20 03:22:45;;;;;;;8.60;6.32;;;;;;;;;;5144922;27;43236;-62
2023/10/20 03:25:17;;;;;;;8.07;6.45;;;;;;;;;;5139366;27;40736;-61
2023/10/20 03:27:47;;;;;;;7.53;6.40;;;;;;;;;;5145625;27;40134;-62
2023/10/20 03:30:16;;;;;;;6.68;5.63;;;;;;;;;;5147337;27;42631;-62
2023/10/20 03:32:44;;;;;;;7.57;6.20;;;;;;;;;;5146861;27;41656;-62
2023/10/20 03:35:12;;;;;;;8.10;5.95;;;;;;;;;;5149134;27;39369;-62
2023/10/20 03:37:41;;;;;;;8.88;6.55;;;;;;;;;;5145093;27;41812;-62
2023/10/20 03:40:13;;;;;;;7.78;6.07;;;;;;;;;;5144059;27;42696;-62
2023/10/20 03:42:43;;;;;;;7.30;5.90;;;;;;;;;;5153492;27;38879;-62
2023/10/20 03:45:14;;;;;;;8.60;6.55;;;;;;;;;;5152496;27;43158;-62
2023/10/20 03:47:43;;;;;;;7.60;6.07;;;;;;;;;;5156976;27;41365;-62
2023/10/20 03:50:17;;;;;;;8.23;6.60;;;;;;;;;;5147774;27;40571;-62
2023/10/20 03:52:46;;;;;;;7.72;6.18;;;;;;;;;;5147943;27;41687;-62
2023/10/20 03:55:14;;;;;;;7.78;6.20;;;;;;;;;;5147794;27;39896;-62
2023/10/20 03:57:43;;;;;;;7.72;6.20;;;;;;;;;;5148987;27;42648;-62
2023/10/20 04:00:21;;;;;;;7.40;6.13;;;;;;;;;;5149486;27;42166;-62
2023/10/20 04:02:51;;;;;;;8.55;6.28;;;;;;;;;;5149724;27;41009;-62
2023/10/20 04:05:20;;;;;;;9.73;6.90;;;;;;;;;;5154898;27;40563;-62
2023/10/20 04:07:48;;;;;;;6.97;6.13;;;;;;;;;;5153547;27;40947;-62
2023/10/20 04:10:18;;;;;;;7.38;5.82;;;;;;;;;;5154088;27;41399;-62
2023/10/20 04:12:47;;;;;;;7.80;6.03;;;;;;;;;;5150538;27;43084;-62
2023/10/20 04:15:16;;;;;;;7.72;6.28;;;;;;;;;;5151004;27;40025;-62
2023/10/20 04:17:44;;;;;;;7.50;6.00;;;;;;;;;;5151636;27;41737;-62
2023/10/20 04:20:17;;;;;;;8.18;6.13;;;;;;;;;;5150770;27;43118;-62
2023/10/20 04:22:49;;;;;;;8.45;6.28;;;;;;;;;;5146465;27;40638;-62
2023/10/20 04:25:17;;;;;;;7.88;6.18;;;;;;;;;;5132721;27;41547;-62
2023/10/20 04:27:54;;;;;;;8.25;6.18;;;;;;;;;;5149291;27;39942;-62
2023/10/20 04:50:28;;;;;;;7.82;6.38;;;;;;;;;;5146441;27;42119;-61
2023/10/20 04:52:59;;;;;;;7.53;5.82;;;;;;;;;;5150302;27;42169;-62
2023/10/20 04:58:13;;;;;;;8.43;6.20;;;;;;;;;;5150172;27;39909;-62
2023/10/20 05:00:42;;;;;;;6.88;5.75;;;;;;;;;;5149427;27;41466;-62
2023/10/20 05:03:44;;;;;;;8.07;5.82;;;;;;;;;;5143818;27;40970;-62
2023/10/20 05:06:25;;;;;;;8.02;5.70;;;;;;;;;;5139939;27;40893;-62
2023/10/20 05:08:54;;;;;;;7.43;5.65;;;;;;;;;;5147756;27;41225;-62
2023/10/20 05:11:22;;;;;;;6.80;5.82;;;;;;;;;;5144269;27;41739;-62
2023/10/20 05:13:50;;;;;;;7.25;5.22;;;;;;;;;;5139544;27;42041;-62
2023/10/20 05:16:21;;;;;;;6.65;5.68;;;;;;;;;;5136704;27;43121;-62
2023/10/20 05:18:49;;;;;;;6.05;5.32;;;;;;;;;;5134400;27;39979;-62
2023/10/20 05:21:18;;;;;;;6.57;5.32;;;;;;;;;;5141023;27;41673;-62
2023/10/20 05:23:47;;;;;;;7.32;5.38;;;;;;;;;;5143365;27;42863;-62
2023/10/20 05:26:16;;;;;;;6.70;5.35;;;;;;;;;;5136801;27;41350;-61
2023/10/20 05:28:44;;;;;;;6.45;5.00;;;;;;;;;;5141261;27;42114;-61
2023/10/20 05:31:12;;;;;;;6.35;5.28;;;;;;;;;;5151818;27;42041;-62
2023/10/20 05:33:41;;;;;;;7.22;5.43;;;;;;;;;;5149543;27;41148;-62
2023/10/20 05:36:10;;;;;;;6.28;5.30;;;;;;;;;;5163447;27;41400;-62
2023/10/20 05:38:38;;;;;;;6.65;4.65;;;;;;;;;;5146421;27;41389;-62
2023/10/20 05:41:05;;;;;;;6.68;5.28;;;;;;;;;;5149851;27;41567;-62
2023/10/20 05:43:35;;;;;;;5.85;4.88;;;;;;;;;;5149240;27;42879;-62
2023/10/20 05:46:03;;;;;;;6.05;4.95;;;;;;;;;;5150397;27;40334;-62
2023/10/20 05:48:31;;;;;;;6.25;5.10;;;;;;;;;;5135524;27;42272;-62
2023/10/20 05:50:59;;;;;;;6.28;5.10;;;;;;;;;;5149712;27;42203;-62
2023/10/20 05:53:27;;;;;;;6.25;5.25;;;;;;;;;;5149711;27;41276;-62
2023/10/20 05:55:57;;;;;;;6.20;4.82;;;;;;;;;;5149541;27;42012;-62
2023/10/20 05:58:25;;;;;;;7.28;5.30;;;;;;;;;;5134951;27;41726;-62
2023/10/20 06:00:54;;;;;;;5.63;4.90;;;;;;;;;;5147481;27;42343;-65
2023/10/20 06:03:30;;;;;;;5.72;4.80;;;;;;;;;;5148891;27;43092;-64
2023/10/20 06:05:59;;;;;;;6.30;4.93;;;;;;;;;;5137263;27;40499;-66
2023/10/20 06:08:28;;;;;;;6.10;5.05;;;;;;;;;;5156583;27;42601;-66
2023/10/20 06:11:02;;;;;;;5.85;4.72;;;;;;;;;;5147870;27;41718;-65
2023/10/20 06:13:30;;;;;;;9.40;5.07;;;;;;;;;;5144299;27;40193;-66
2023/10/20 06:16:04;;;;;;;5.93;4.70;;;;;;;;;;5160003;27;41485;-65
2023/10/20 06:18:32;;;;;;;6.00;4.78;;;;;;;;;;5142667;27;42617;-65
2023/10/20 06:21:04;;;;;;;6.03;4.47;;;;;;;;;;5154613;27;39905;-67
2023/10/20 06:23:32;;;;;;;10.43;5.22;;;;;;;;;;5157766;27;42081;-67
2023/10/20 06:26:00;;;;;;;6.97;5.53;;;;;;;;;;5146037;27;41364;-66
2023/10/20 06:28:28;;;;;;;8.95;5.13;;;;;;;;;;5149315;27;41300;-67
2023/10/20 06:31:00;;;;;;;6.97;4.80;;;;;;;;;;5145748;27;42151;-67
2023/10/20 06:33:33;;;;;;;8.00;5.50;;;;;;;;;;5145890;27;40972;-67
2023/10/20 06:36:10;;;;;;;5.80;4.40;;;;;;;;;;5148404;27;42628;-68
2023/10/20 06:38:44;;;;;;;12.15;5.05;;;;;;;;;;5142161;27;42103;-67
2023/10/20 06:41:14;;;;;;;6.35;4.75;;;;;;;;;;5147637;27;41382;-66
2023/10/20 06:43:42;;;;;;;7.63;5.10;;;;;;;;;;5148968;27;41509;-67
2023/10/20 06:46:10;;;;;;;9.05;5.15;;;;;;;;;;5147887;27;41364;-66
2023/10/20 06:48:39;;;;;;;6.80;5.20;;;;;;;;;;5154587;27;41043;-67
2023/10/20 06:51:07;;;;;;;6.25;4.70;;;;;;;;;;5150177;27;43107;-67
2023/10/20 06:53:35;;;;;;;7.53;4.63;;;;;;;;;;5147586;27;41532;-67
2023/10/20 06:56:05;;;;;;;6.80;4.80;;;;;;;;;;5140668;27;41978;-67
2023/10/20 06:58:44;;;;;;;7.15;4.95;;;;;;;;;;5140282;27;42028;-60
2023/10/20 07:01:12;;;;;;;6.47;4.93;;;;;;;;;;5146418;27;40265;-66
2023/10/20 07:03:41;;;;;;;6.78;5.45;;;;;;;;;;5137063;27;42407;-63
2023/10/20 07:06:11;;;;;;;6.45;4.15;;;;;;;;;;5142662;27;41419;-63
2023/10/20 07:08:39;;;;;;;6.63;4.75;;;;;;;;;;5150895;27;41537;-62
2023/10/20 07:11:07;;;;;;;7.57;4.85;;;;;;;;;;5133443;27;42114;-62
2023/10/20 07:13:35;;;;;;;5.65;4.25;;;;;;;;;;5146058;27;40234;-62
2023/10/20 07:16:03;;;;;;;5.72;4.28;;;;;;;;;;5146063;27;41588;-62
2023/10/20 07:18:32;;;;;;;5.68;4.28;;;;;;;;;;5144299;27;43027;-64
2023/10/20 07:21:02;;;;;;;6.07;4.18;;;;;;;;;;5138512;27;40977;-62
2023/10/20 07:23:31;;;;;;;6.57;4.45;;;;;;;;;;5160220;27;41062;-62
2023/10/20 07:26:00;;;;;;;5.75;4.28;;;;;;;;;;5132974;27;41569;-62
2023/10/20 07:28:28;;;;;;;7.05;4.20;;;;;;;;;;5146391;27;41719;-62
2023/10/20 07:30:56;;;;;;;5.65;3.95;;;;;;;;;;5146006;27;41849;-62
2023/10/20 07:33:24;;;;;;;8.27;3.83;;;;;;;;;;5145941;27;40118;-63
2023/10/20 07:35:52;;;;;;;5.60;4.03;;;;;;;;;;5146882;27;41100;-62
2023/10/20 07:38:22;;;;;;;5.47;4.13;;;;;;;;;;5147844;27;41496;-62
2023/10/20 07:40:52;;;;;;;5.05;4.00;;;;;;;;;;5142782;27;40288;-62
2023/10/20 07:43:25;;;;;;;4.32;3.53;;;;;;;;;;5133523;27;41500;-62
2023/10/20 07:45:53;;;;;;;7.20;4.22;;;;;;;;;;5141653;27;43341;-62
2023/10/20 07:48:21;;;;;;;5.68;3.88;;;;;;;;;;5135556;27;40119;-62
2023/10/20 07:50:49;;;;;;;4.45;3.65;;;;;;;;;;5133680;27;43006;-62
2023/10/20 07:53:18;;;;;;;5.30;3.95;;;;;;;;;;5131305;27;40445;-62
2023/10/20 07:55:47;;;;;;;4.50;3.42;;;;;;;;;;5138713;27;42312;-62
2023/10/20 07:58:15;;;;;;;5.25;4.10;;;;;;;;;;5133669;27;43005;-61
2023/10/20 08:00:43;;;;;;;4.15;3.33;;;;;;;;;;5144928;27;41209;-62
2023/10/20 08:03:11;;;;;;;4.60;3.30;;;;;;;;;;5142980;27;43008;-63
2023/10/20 08:05:39;;;;;;;4.30;3.25;;;;;;;;;;5139489;27;42344;-62
2023/10/20 08:08:08;;;;;;;4.70;3.00;;;;;;;;;;5134247;27;41822;-68
2023/10/20 08:10:37;;;;;;;23.73;3.33;;;;;;;;;;5155825;27;41622;-64
2023/10/20 08:13:06;;;;;;;9.82;3.60;;;;;;;;;;5161756;27;40687;-60
2023/10/20 08:15:36;;;;;;;5.15;3.17;;;;;;;;;;5153406;27;42497;-60
2023/10/20 08:18:04;;;;;;;6.45;2.95;;;;;;;;;;5148342;27;42205;-60
2023/10/20 08:20:33;;;;;;;3.20;2.75;;;;;;;;;;5146858;27;41030;-61
2023/10/20 08:23:01;;;;;;;7.68;2.85;;;;;;;;;;5151874;27;41621;-60
2023/10/20 08:25:29;;;;;;;10.00;3.30;;;;;;;;;;5139832;27;42687;-60
2023/10/20 08:27:57;;;;;;;4.95;3.03;;;;;;;;;;5128853;27;38914;-60
2023/10/20 08:30:26;;;;;;;4.43;2.70;;;;;;;;;;5139037;27;41463;-60
2023/10/20 08:32:54;;;;;;;5.40;2.83;;;;;;;;;;5142000;27;32411;-60
2023/10/20 08:35:23;;;;;;;4.13;2.75;;;;;;;;;;5136729;27;43002;-63
2023/10/20 08:37:51;;;;;;;7.43;2.75;;;;;;;;;;5135378;27;41695;-63
2023/10/20 08:40:19;;;;;;;6.60;3.33;;;;;;;;;;5146938;27;40200;-59
2023/10/20 08:42:47;;;;;;;7.47;2.67;;;;;;;;;;5142608;27;41282;-60
2023/10/20 08:45:15;;;;;;;3.42;2.78;;;;;;;;;;5153911;27;41637;-60
2023/10/20 08:47:45;;;;;;;4.07;2.85;;;;;;;;;;5152435;27;40393;-59
2023/10/20 08:50:13;;;;;;;10.38;3.58;;;;;;;;;;5140178;27;41839;-59
2023/10/20 08:52:44;;;;;;;3.08;2.60;;;;;;;;;;5147879;27;42168;-60
2023/10/20 08:55:13;;;;;;;2.90;2.35;;;;;;;;;;5137598;27;42473;-60
2023/10/20 08:57:41;;;;;;;4.05;2.80;;;;;;;;;;5140661;27;41812;-60
2023/10/20 09:00:19;;;;;;;4.80;2.30;;;;;;;;;;5135833;27;40423;-60
2023/10/20 09:02:48;;;;;;;5.55;2.50;;;;;;;;;;5156027;27;42423;-60
2023/10/20 09:05:20;;;;;;;3.45;2.20;;;;;;;;;;5164689;27;42700;-60
2023/10/20 09:07:51;;;;;;;8.45;2.63;;;;;;;;;;5156667;27;40192;-60
2023/10/20 09:10:19;;;;;;;4.88;2.33;;;;;;;;;;5153166;27;41552;-60
2023/10/20 09:12:47;;;;;;;3.05;2.00;;;;;;;;;;5157841;27;42227;-59
2023/10/20 09:15:15;;;;;;;3.15;2.38;;;;;;;;;;5147065;27;39763;-60
2023/10/20 09:17:44;;;;;;;4.82;2.47;;;;;;;;;;5146617;27;44388;-60
2023/10/20 09:20:14;;;;;;;2.72;2.10;;;;;;;;;;5142854;27;40567;-60
2023/10/20 09:22:42;;;;;;;5.50;2.00;;;;;;;;;;5133143;27;39947;-60
2023/10/20 09:25:11;;;;;;;6.32;2.30;;;;;;;;;;5138376;27;41829;-61
2023/10/20 09:27:39;;;;;;;3.78;2.05;;;;;;;;;;5142508;27;40216;-60
2023/10/20 09:30:10;;;;;;;2.67;2.10;;;;;;;;;;5143038;27;41672;-59
2023/10/20 09:32:38;;;;;;;3.53;1.77;;;;;;;;;;5149927;27;41772;-60
2023/10/20 09:35:06;;;;;;;3.45;1.90;;;;;;;;;;5152129;27;40406;-60
2023/10/20 09:37:36;;;;;;;6.15;2.33;;;;;;;;;;5154922;27;43149;-61
2023/10/20 09:40:06;;;;;;;2.45;1.70;;;;;;;;;;5135244;27;41270;-60
2023/10/20 09:42:37;;;;;;;1.90;1.70;;;;;;;;;;5148715;27;41525;-60
2023/10/20 09:45:06;;;;;;;4.00;1.52;;;;;;;;;;5148506;27;42296;-60
2023/10/20 09:47:34;;;;;;;1.95;1.50;;;;;;;;;;5137119;27;41445;-60
2023/10/20 09:50:02;;;;;;;2.05;1.73;;;;;;;;;;5166415;27;42517;-60
2023/10/20 09:52:30;;;;;;;2.35;1.80;;;;;;;;;;5158960;27;43113;-60
2023/10/20 09:54:59;;;;;;;4.47;1.50;;;;;;;;;;5148309;27;40195;-60
2023/10/20 09:57:27;;;;;;;2.78;1.23;;;;;;;;;;5148020;27;41052;-60
2023/10/20 09:59:55;;;;;;;1.70;1.30;;;;;;;;;;5148797;27;41633;-65
2023/10/20 10:02:29;;;;;;;6.22;1.80;;;;;;;;;;5143442;27;41764;-65
2023/10/20 10:04:57;;;;;;;1.88;1.48;;;;;;;;;;5142900;27;41907;-65
2023/10/20 10:07:27;;;;;;;1.92;1.30;;;;;;;;;;5145239;27;39861;-64
2023/10/20 10:09:55;;;;;;;1.88;1.52;;;;;;;;;;5142350;27;42472;-65
2023/10/20 10:12:25;;;;;;;1.98;1.48;;;;;;;;;;5146991;27;42222;-65
2023/10/20 10:14:57;;;;;;;2.00;1.38;;;;;;;;;;5149525;27;40701;-65
2023/10/20 10:17:26;;;;;;;1.95;1.45;;;;;;;;;;5147459;27;42174;-65
2023/10/20 10:19:55;;;;;;;1.63;1.40;;;;;;;;;;5134870;27;42035;-65
2023/10/20 10:22:24;;;;;;;2.20;1.63;;;;;;;;;;5126139;27;40924;-65
2023/10/20 10:24:52;;;;;;;1.65;1.13;;;;;;;;;;5139976;27;42522;-65
2023/10/20 10:27:22;;;;;;;1.55;1.42;;;;;;;;;;5144893;27;40551;-65
2023/10/20 10:29:53;;;;;;;1.92;1.13;;;;;;;;;;5144123;27;41459;-65
2023/10/20 10:32:22;;;;;;;2.00;1.05;;;;;;;;;;5146234;27;42026;-65
2023/10/20 10:34:53;;;;;;;1.45;1.27;;;;;;;;;;5143399;27;40444;-65
2023/10/20 10:37:32;;;;;;;1.88;1.40;;;;;;;;;;5149822;27;41758;-65
2023/10/20 10:40:07;;;;;;;2.28;1.23;;;;;;;;;;5140515;27;44736;-65
2023/10/20 10:42:39;;;;;;;1.10;0.93;;;;;;;;;;5140996;27;40231;-65
2023/10/20 10:45:19;;;;;;;1.13;0.98;;;;;;;;;;5138712;27;45421;-65
2023/10/20 10:47:48;;;;;;;1.33;1.10;;;;;;;;;;5145987;27;41237;-65
2023/10/20 10:50:16;;;;;;;1.48;0.90;;;;;;;;;;5137272;27;42799;-65
2023/10/20 10:52:45;;;;;;;4.18;0.95;;;;;;;;;;5156394;27;41819;-60
2023/10/20 10:55:13;;;;;;;2.33;1.00;;;;;;;;;;5146649;27;40038;-61
2023/10/20 10:57:41;;;;;;;3.65;1.20;;;;;;;;;;5137080;27;41675;-60
2023/10/20 11:00:13;;;;;;;2.17;1.20;;;;;;;;;;5128436;27;41697;-61
2023/10/20 11:02:42;;;;;;;3.38;1.10;;;;;;;;;;5148454;27;40960;-62
2023/10/20 11:05:10;;;;;;;3.25;1.00;;;;;;;;;;5150540;27;42613;-60
2023/10/20 11:07:38;;;;;;;3.38;1.00;;;;;;;;;;5146253;27;39021;-60
2023/10/20 11:10:07;;;;;;;1.95;1.08;;;;;;;;;;5149479;27;42488;-61
2023/10/20 11:12:35;;;;;;;4.35;1.10;;;;;;;;;;5151839;27;41769;-59
2023/10/20 11:15:03;;;;;;;3.15;1.33;;;;;;;;;;5147155;27;41676;-60
2023/10/20 11:17:31;;;;;;;4.45;0.95;;;;;;;;;;5150126;27;41241;-59
2023/10/20 11:20:01;;;;;;;2.97;0.77;;;;;;;;;;5143976;27;41533;-60
2023/10/20 11:22:37;;;;;;;4.30;0.90;;;;;;;;;;5146494;27;39854;-60
2023/10/20 11:25:06;;;;;;;7.53;1.55;;;;;;;;;;5134444;27;41046;-60
2023/10/20 11:27:40;;;;;;;3.10;1.00;;;;;;;;;;5142562;27;42097;-61
2023/10/20 11:30:09;;;;;;;2.50;1.27;;;;;;;;;;5144727;27;41403;-60
2023/10/20 11:32:38;;;;;;;2.30;1.35;;;;;;;;;;5146754;27;41656;-60
2023/10/20 11:35:07;;;;;;;2.78;1.55;;;;;;;;;;5147238;27;41270;-60
2023/10/20 11:37:35;;;;;;;7.20;1.52;;;;;;;;;;5147740;27;42261;-60
2023/10/20 11:40:04;;;;;;;3.30;1.27;;;;;;;;;;5143633;27;42099;-60
2023/10/20 11:42:32;;;;;;;1.38;0.90;;;;;;;;;;5146949;27;41136;-60
2023/10/20 11:45:01;;;;;;;2.25;1.27;;;;;;;;;;5146379;27;40101;-60
2023/10/20 11:47:28;;;;;;;3.15;1.25;;;;;;;;;;5147634;27;41876;-60
2023/10/20 11:49:57;;;;;;;1.75;1.30;;;;;;;;;;5142306;27;40863;-60
2023/10/20 11:52:26;;;;;;;1.60;1.13;;;;;;;;;;5137881;27;42750;-61
2023/10/20 11:54:54;;;;;;;4.80;1.30;;;;;;;;;;5147078;27;39816;-60
2023/10/20 11:57:22;;;;;;;2.38;1.30;;;;;;;;;;5148293;27;41262;-60
2023/10/20 11:59:51;;;;;;;3.53;1.42;;;;;;;;;;5135853;27;42794;-60
2023/10/20 12:02:19;;;;;;;3.88;1.30;;;;;;;;;;5148991;27;41508;-60
2023/10/20 12:04:50;;;;;;;2.75;1.50;;;;;;;;;;5143234;27;41263;-60
2023/10/20 12:07:19;;;;;;;3.78;1.20;;;;;;;;;;5145606;27;43144;-60
2023/10/20 12:09:48;;;;;;;1.92;1.48;;;;;;;;;;5132298;27;40004;-60
2023/10/20 12:12:17;;;;;;;2.22;1.30;;;;;;;;;;5137291;27;41772;-60
2023/10/20 12:14:45;;;;;;;4.97;2.20;;;;;;;;;;5144679;27;40952;-60
2023/10/20 12:17:13;;;;;;;2.55;0.80;;;;;;;;;;5146423;27;40947;-61
2023/10/20 12:19:41;;;;;;;2.83;1.20;;;;;;;;;;5147548;27;41637;-60
2023/10/20 12:22:09;;;;;;;2.55;0.98;;;;;;;;;;5164721;27;40154;-59
2023/10/20 12:24:37;;;;;;;4.97;1.15;;;;;;;;;;5143315;27;41821;-59
2023/10/20 12:27:06;;;;;;;3.22;0.95;;;;;;;;;;5143758;27;42636;-59
2023/10/20 12:29:34;;;;;;;1.52;0.93;;;;;;;;;;5144144;27;40124;-60
2023/10/20 12:32:03;;;;;;;10.60;1.75;;;;;;;;;;5146088;27;41434;-59
2023/10/20 12:34:32;;;;;;;2.38;0.98;;;;;;;;;;5146120;27;42136;-59
2023/10/20 12:37:01;;;;;;;1.02;0.93;;;;;;;;;;5143872;27;41595;-59
2023/10/20 12:39:31;;;;;;;6.45;0.98;;;;;;;;;;5148434;27;43287;-59
2023/10/20 12:42:02;;;;;;;2.63;1.25;;;;;;;;;;5138238;27;42417;-60
2023/10/20 12:44:33;;;;;;;2.35;1.40;;;;;;;;;;5142971;27;42154;-59
2023/10/20 12:47:02;;;;;;;4.00;1.20;;;;;;;;;;5148220;27;41637;-59
2023/10/20 12:49:31;;;;;;;35.38;8.20;;;;;;;;;;5156438;27;40194;-58
2023/10/20 12:51:59;;;;;;;17.23;5.00;;;;;;;;;;5144938;27;42252;-60
2023/10/20 12:54:28;;;;;;;15.32;4.88;;;;;;;;;;5140113;27;42323;-60
2023/10/20 12:56:58;;;;;;;18.00;5.85;;;;;;;;;;5153522;27;41188;-58
2023/10/20 12:59:26;;;;;;;13.35;5.25;;;;;;;;;;5152316;27;42025;-61
2023/10/20 13:01:56;;;;;;;17.35;5.85;;;;;;;;;;5145586;27;41039;-60
2023/10/20 13:04:24;;;;;;;15.18;5.45;;;;;;;;;;5149341;27;41693;-59
2023/10/20 13:06:52;;;;;;;15.85;4.63;;;;;;;;;;5129635;27;43174;-59
2023/10/20 13:09:28;;;;;;;21.60;4.28;;;;;;;;;;5137307;27;40202;-59
2023/10/20 13:11:57;;;;;;;13.82;3.97;;;;;;;;;;5158821;27;42051;-59
2023/10/20 13:14:25;;;;;;;13.27;3.75;;;;;;;;;;5139360;27;42466;-60
2023/10/20 13:16:53;;;;;;;11.98;3.35;;;;;;;;;;5154820;27;42053;-59
2023/10/20 13:19:22;;;;;;;12.02;3.08;;;;;;;;;;5161184;27;42651;-59
2023/10/20 13:21:50;;;;;;;12.85;3.30;;;;;;;;;;5157759;27;40357;-59
2023/10/20 13:24:19;;;;;;;9.30;3.15;;;;;;;;;;5155652;27;41661;-59
2023/10/20 13:26:47;;;;;;;13.77;2.97;;;;;;;;;;5139812;27;43309;-59
2023/10/20 13:29:15;;;;;;;9.85;3.20;;;;;;;;;;5147616;27;41206;-60
2023/10/20 13:31:43;;;;;;;9.93;2.72;;;;;;;;;;5147979;27;43235;-59
2023/10/20 13:34:11;;;;;;;7.25;2.70;;;;;;;;;;5148119;27;43382;-59
2023/10/20 13:36:40;;;;;;;7.43;2.58;;;;;;;;;;5148588;27;40477;-60
2023/10/20 13:39:09;;;;;;;5.47;2.55;;;;;;;;;;5150190;27;41764;-60
2023/10/20 13:41:40;;;;;;;7.95;2.42;;;;;;;;;;5147377;27;40452;-59
2023/10/20 13:44:10;;;;;;;4.70;2.67;;;;;;;;;;5149069;27;41766;-60
2023/10/20 13:46:38;;;;;;;8.52;2.28;;;;;;;;;;5149223;27;42325;-59
2023/10/20 13:49:06;;;;;;;6.35;2.22;;;;;;;;;;5149274;27;40594;-59
2023/10/20 13:51:34;;;;;;;3.42;1.88;;;;;;;;;;5149442;27;41537;-59
2023/10/20 13:54:04;;;;;;;5.25;2.38;;;;;;;;;;5149150;27;43103;-60
2023/10/20 13:56:32;;;;;;;7.50;2.08;;;;;;;;;;5147984;27;40860;-59
2023/10/20 13:59:00;;;;;;;5.38;1.80;;;;;;;;;;5149379;27;42146;-59
2023/10/20 14:01:28;;;;;;;5.35;1.67;;;;;;;;;;5149141;27;42107;-59
2023/10/20 14:03:56;;;;;;;2.67;1.60;;;;;;;;;;5148384;27;41237;-59
2023/10/20 14:06:25;;;;;;;5.28;1.60;;;;;;;;;;5153928;27;42252;-59
2023/10/20 14:08:52;;;;;;;3.92;1.92;;;;;;;;;;5163759;27;41338;-60
2023/10/20 14:11:22;;;;;;;8.25;2.03;;;;;;;;;;5147132;27;41490;-60
2023/10/20 14:13:50;;;;;;;3.55;2.13;;;;;;;;;;5133853;27;42502;-59
2023/10/20 14:16:18;;;;;;;3.67;1.70;;;;;;;;;;5148661;27;40477;-60
2023/10/20 14:18:46;;;;;;;4.97;1.58;;;;;;;;;;5150542;27;41194;-60
2023/10/20 14:21:14;;;;;;;7.82;1.85;;;;;;;;;;5138273;27;42246;-60
2023/10/20 14:23:42;;;;;;;7.15;1.70;;;;;;;;;;5142875;27;41248;-59
2023/10/20 14:26:10;;;;;;;8.52;1.85;;;;;;;;;;5134251;27;40705;-60
2023/10/20 14:28:39;;;;;;;3.78;1.40;;;;;;;;;;5148858;27;39941;-61
2023/10/20 14:31:07;;;;;;;4.88;1.63;;;;;;;;;;5147445;27;41587;-60
2023/10/20 14:33:35;;;;;;;6.78;1.48;;;;;;;;;;5155443;27;42930;-61
2023/10/20 14:36:03;;;;;;;4.57;1.42;;;;;;;;;;5148690;27;40961;-61
2023/10/20 14:38:31;;;;;;;3.22;1.70;;;;;;;;;;5139751;27;41938;-61
2023/10/20 14:41:01;;;;;;;3.83;1.60;;;;;;;;;;5141807;27;42325;-61
2023/10/20 14:43:32;;;;;;;4.53;1.35;;;;;;;;;;5132945;27;40343;-61
2023/10/20 14:46:01;;;;;;;5.57;1.60;;;;;;;;;;5147654;27;41173;-61
2023/10/20 14:48:29;;;;;;;7.57;1.55;;;;;;;;;;5148416;27;39777;-62
2023/10/20 14:50:58;;;;;;;3.25;1.30;;;;;;;;;;5149018;27;42622;-61
2023/10/20 14:53:26;;;;;;;5.50;1.38;;;;;;;;;;5147462;27;42042;-62
2023/10/20 14:55:55;;;;;;;4.60;1.50;;;;;;;;;;5149168;27;41869;-61
2023/10/20 14:58:23;;;;;;;4.20;1.58;;;;;;;;;;5148164;27;41927;-61
2023/10/20 15:00:51;;;;;;;2.85;1.40;;;;;;;;;;5147789;27;41861;-61
2023/10/20 15:03:20;;;;;;;4.03;1.33;;;;;;;;;;5147583;27;40727;-61
2023/10/20 15:05:49;;;;;;;4.18;1.40;;;;;;;;;;5147877;27;42282;-61
2023/10/20 15:08:17;;;;;;;4.30;1.30;;;;;;;;;;5147970;27;40307;-62
2023/10/20 15:10:45;;;;;;;2.10;0.95;;;;;;;;;;5147689;27;41275;-61
2023/10/20 15:13:14;;;;;;;3.40;1.75;;;;;;;;;;5146382;27;42026;-61
2023/10/20 15:15:43;;;;;;;3.42;2.08;;;;;;;;;;5144590;27;40365;-61
2023/10/20 15:18:11;;;;;;;6.13;2.20;;;;;;;;;;5145538;27;43160;-62